Time;durP1;ratioP1;P1;durP2;ratioP2;P2;SDS_P1;SDS_P2;PMS_P1;PMS_P2;Temp;Humidity;BMP_temperature;BMP_pressure;BME280_temperature;BME280_humidity;BME280_pressure;Samples;Min_cycle;Max_cycle;Signal;HPM_P1;HPM_P2
2020/12/22 00:01:36;;;;;;;16.73;11.85;;;;;;;6.67;88.93;100575.25;10129958;28;20049;-65
2020/12/22 00:06:32;;;;;;;16.08;10.80;;;;;;;6.62;88.83;100581.59;10119683;28;20054;-65
2020/12/22 00:11:28;;;;;;;16.80;11.63;;;;;;;6.63;89.65;100582.38;10126443;28;20067;-65
2020/12/22 00:16:24;;;;;;;16.25;12.15;;;;;;;6.67;89.49;100573.34;10124905;28;20062;-65
2020/12/22 00:21:20;;;;;;;17.35;11.75;;;;;;;6.64;89.66;100556.84;10119203;28;20055;-65
2020/12/22 00:26:17;;;;;;;17.88;12.52;;;;;;;6.68;89.73;100542.38;10133073;28;20070;-65
2020/12/22 00:31:13;;;;;;;16.77;11.98;;;;;;;6.74;89.78;100541.16;10130531;28;20529;-66
2020/12/22 00:36:09;;;;;;;15.70;11.63;;;;;;;6.65;90.49;100532.06;10124150;28;20058;-65
2020/12/22 00:41:05;;;;;;;16.08;11.27;;;;;;;6.68;90.48;100527.97;10136277;28;20894;-65
2020/12/22 00:46:01;;;;;;;18.50;11.50;;;;;;;6.76;90.42;100502.84;10127755;28;20054;-64
2020/12/22 00:50:57;;;;;;;15.10;11.20;;;;;;;6.81;90.40;100497.31;10121263;28;20051;-65
2020/12/22 00:55:53;;;;;;;13.48;10.50;;;;;;;6.84;90.33;100496.72;10125662;28;20175;-66
2020/12/22 01:00:49;;;;;;;17.10;13.13;;;;;;;6.86;90.39;100483.63;10126286;28;20050;-64
2020/12/22 01:05:45;;;;;;;15.55;11.13;;;;;;;6.90;90.43;100487.38;10127733;28;20074;-64
2020/12/22 01:10:41;;;;;;;15.75;11.20;;;;;;;6.93;90.36;100494.91;10138214;28;20430;-66
2020/12/22 01:15:37;;;;;;;14.77;11.30;;;;;;;6.93;90.60;100478.63;10136900;28;20043;-65
2020/12/22 01:20:33;;;;;;;14.50;11.05;;;;;;;6.97;90.66;100484.28;10140220;28;20069;-65
2020/12/22 01:25:29;;;;;;;13.30;10.88;;;;;;;7.00;91.30;100466.56;10140448;28;20074;-66
2020/12/22 01:30:25;;;;;;;17.10;10.52;;;;;;;6.99;91.00;100464.97;10138698;28;20058;-65
2020/12/22 01:35:20;;;;;;;15.25;10.95;;;;;;;7.02;91.16;100458.91;10128569;28;20059;-66
2020/12/22 01:40:16;;;;;;;13.63;10.05;;;;;;;7.05;91.18;100447.44;10132648;28;20050;-66
2020/12/22 01:45:13;;;;;;;15.05;10.43;;;;;;;7.05;91.56;100436.56;10140296;28;20053;-65
2020/12/22 01:50:09;;;;;;;14.18;10.57;;;;;;;7.11;91.25;100438.06;10134117;28;20525;-65
2020/12/22 01:55:06;;;;;;;14.35;9.70;;;;;;;7.13;91.29;100427.72;10139711;28;20509;-65
2020/12/22 02:00:04;;;;;;;12.50;10.18;;;;;;;7.21;91.38;100413.41;10139761;28;20117;-66
2020/12/22 02:05:02;;;;;;;12.50;9.48;;;;;;;7.22;90.77;100409.59;10133531;28;20054;-66
2020/12/22 02:09:58;;;;;;;13.00;9.27;;;;;;;7.19;90.86;100399.28;10130894;28;20133;-65
2020/12/22 02:14:54;;;;;;;11.45;8.57;;;;;;;7.29;90.95;100393.66;10133550;28;20053;-65
2020/12/22 02:19:50;;;;;;;12.73;8.90;;;;;;;7.29;90.54;100382.78;10128827;28;20062;-66
2020/12/22 02:24:47;;;;;;;12.65;8.15;;;;;;;7.32;90.98;100382.16;10134305;28;20056;-66
2020/12/22 02:29:43;;;;;;;12.43;9.07;;;;;;;7.34;90.78;100374.50;10133381;28;20054;-63
2020/12/22 02:34:39;;;;;;;12.88;8.95;;;;;;;7.29;91.37;100361.03;10132815;28;20046;-66
2020/12/22 02:39:35;;;;;;;13.18;9.35;;;;;;;7.34;91.06;100347.31;10132908;28;20058;-66
2020/12/22 02:44:31;;;;;;;13.80;9.55;;;;;;;7.36;91.23;100339.66;10128245;28;20042;-65
2020/12/22 02:49:27;;;;;;;12.13;9.02;;;;;;;7.35;91.42;100321.72;10131882;28;20058;-66
2020/12/22 02:54:23;;;;;;;12.98;9.05;;;;;;;7.34;91.26;100309.25;10130037;28;20047;-65
2020/12/22 02:59:19;;;;;;;13.18;9.32;;;;;;;7.41;91.64;100314.25;10136987;28;20058;-65
2020/12/22 03:04:15;;;;;;;12.25;9.38;;;;;;;7.46;91.50;100321.50;10131568;28;20057;-64
2020/12/22 03:09:12;;;;;;;13.43;9.48;;;;;;;7.50;91.64;100311.63;10137494;28;20622;-66
2020/12/22 03:14:08;;;;;;;10.38;8.10;;;;;;;7.54;91.47;100301.72;10127655;28;20097;-64
2020/12/22 03:19:04;;;;;;;11.23;7.65;;;;;;;7.61;91.26;100285.78;10144399;28;20061;-64
2020/12/22 03:24:00;;;;;;;13.25;7.75;;;;;;;7.67;91.52;100270.94;10118110;28;20042;-65
2020/12/22 03:28:57;;;;;;;9.48;7.38;;;;;;;7.69;91.92;100255.13;10122404;28;20067;-65
2020/12/22 03:33:52;;;;;;;10.20;7.07;;;;;;;7.73;91.77;100250.66;10135408;28;20050;-66
2020/12/22 03:38:48;;;;;;;11.20;7.95;;;;;;;7.75;92.08;100243.00;10140373;28;20137;-64
2020/12/22 03:43:45;;;;;;;10.13;7.53;;;;;;;7.78;91.66;100223.31;10127676;28;20046;-65
2020/12/22 03:48:41;;;;;;;8.95;6.80;;;;;;;7.76;92.53;100228.25;10141512;28;20050;-65
2020/12/22 03:53:37;;;;;;;9.65;6.82;;;;;;;7.85;92.37;100208.47;10139590;28;20054;-65
2020/12/22 03:58:33;;;;;;;8.23;6.60;;;;;;;7.82;92.77;100203.63;10131669;28;20486;-65
2020/12/22 04:03:29;;;;;;;9.45;7.13;;;;;;;7.89;92.78;100198.53;10127326;28;20046;-64
2020/12/22 04:08:24;;;;;;;8.32;5.80;;;;;;;7.94;92.37;100201.16;10128082;28;20057;-65
2020/12/22 04:13:21;;;;;;;10.02;6.25;;;;;;;8.00;92.92;100189.00;10115074;28;20056;-65
2020/12/22 04:18:17;;;;;;;7.25;5.75;;;;;;;8.06;93.08;100193.19;10135146;28;20507;-66
2020/12/22 04:23:13;;;;;;;7.25;5.05;;;;;;;8.12;93.21;100191.97;10124947;28;20038;-66
2020/12/22 04:28:09;;;;;;;7.32;5.05;;;;;;;8.19;92.93;100192.31;10131249;28;20092;-65
2020/12/22 04:33:05;;;;;;;7.03;4.72;;;;;;;8.25;93.60;100184.78;10133750;28;20056;-65
2020/12/22 04:38:01;;;;;;;7.75;5.07;;;;;;;8.28;93.48;100180.63;10131330;28;20438;-66
2020/12/22 04:42:58;;;;;;;7.03;4.70;;;;;;;8.32;94.02;100184.31;10128422;28;20043;-65
2020/12/22 04:47:57;;;;;;;6.10;4.35;;;;;;;8.35;94.14;100180.97;10140725;28;20430;-66
2020/12/22 04:52:53;;;;;;;6.95;3.78;;;;;;;8.45;93.85;100172.56;10133969;28;20035;-66
2020/12/22 04:57:51;;;;;;;5.80;3.75;;;;;;;8.52;93.99;100175.59;10133253;28;20058;-66
2020/12/22 05:02:50;;;;;;;4.72;2.95;;;;;;;8.53;94.67;100163.56;10129147;28;20070;-66
2020/12/22 05:07:46;;;;;;;9.40;3.30;;;;;;;8.57;95.15;100161.81;10138877;28;20065;-65
2020/12/22 05:12:43;;;;;;;5.70;2.35;;;;;;;8.62;94.22;100164.41;10136625;28;20081;-66
2020/12/22 05:17:43;;;;;;;4.25;2.10;;;;;;;8.67;94.52;100174.34;10137326;28;20658;-65
2020/12/22 05:22:41;;;;;;;4.18;1.70;;;;;;;8.77;94.88;100167.78;10138520;28;20054;-64
2020/12/22 05:27:37;;;;;;;4.10;1.90;;;;;;;8.84;94.90;100168.09;10126952;28;20517;-63
2020/12/22 05:32:33;;;;;;;4.45;1.80;;;;;;;8.95;95.42;100169.41;10130831;28;20054;-66
2020/12/22 05:37:29;;;;;;;5.75;3.03;;;;;;;9.29;96.56;100173.25;10128716;28;20109;-65
2020/12/22 05:42:27;;;;;;;8.45;4.70;;;;;;;9.41;95.95;100164.41;10127871;28;20545;-65
2020/12/22 05:47:23;;;;;;;7.85;5.97;;;;;;;9.57;96.62;100173.69;10130021;28;20764;-65
2020/12/22 05:52:24;;;;;;;8.23;5.97;;;;;;;9.69;96.36;100153.91;10133993;28;20062;-65
2020/12/22 05:57:28;;;;;;;9.50;7.47;;;;;;;9.82;96.68;100163.84;10128649;28;20503;-65
2020/12/22 06:02:30;;;;;;;14.73;8.93;;;;;;;9.86;96.52;100158.50;10129550;28;20042;-66
2020/12/22 06:07:27;;;;;;;11.35;9.40;;;;;;;9.93;96.17;100166.22;10118677;28;20050;-65
2020/12/22 06:12:24;;;;;;;11.25;9.60;;;;;;;10.03;96.62;100157.66;10124000;28;20071;-66
2020/12/22 06:17:21;;;;;;;13.60;10.93;;;;;;;10.07;95.86;100167.63;10135231;28;20055;-65
2020/12/22 06:22:18;;;;;;;14.98;12.18;;;;;;;10.16;96.79;100172.22;10138787;28;20042;-65
2020/12/22 06:27:14;;;;;;;14.30;11.48;;;;;;;10.21;96.81;100180.22;10137619;28;20046;-65
2020/12/22 06:32:16;;;;;;;22.10;12.18;;;;;;;10.21;96.67;100181.06;10147641;28;20049;-66
2020/12/22 06:37:12;;;;;;;17.52;11.70;;;;;;;10.25;97.09;100176.50;10123828;28;20069;-66
2020/12/22 06:42:11;;;;;;;15.52;10.20;;;;;;;10.32;96.92;100193.22;10129492;28;20046;-66
2020/12/22 06:47:07;;;;;;;13.90;11.40;;;;;;;10.37;96.90;100188.72;10138464;28;20054;-65
2020/12/22 06:52:46;;;;;;;15.07;11.60;;;;;;;10.40;96.93;100182.59;10133524;28;20062;-66
2020/12/22 06:57:57;;;;;;;12.23;10.60;;;;;;;10.40;96.87;100201.75;10121419;28;20057;-65
2020/12/22 07:03:15;;;;;;;12.93;9.57;;;;;;;10.44;96.68;100199.94;10125019;28;20054;-65
2020/12/22 07:08:15;;;;;;;11.85;10.15;;;;;;;10.47;97.05;100215.69;10106320;28;20046;-65
2020/12/22 07:13:14;;;;;;;10.48;8.02;;;;;;;10.51;96.92;100228.38;10126126;28;20702;-65
2020/12/22 07:18:14;;;;;;;9.23;8.00;;;;;;;10.54;96.96;100237.84;10130658;28;20093;-66
2020/12/22 07:23:11;;;;;;;9.75;7.80;;;;;;;10.54;96.65;100235.09;10138137;28;20050;-65
2020/12/22 07:28:09;;;;;;;8.10;6.22;;;;;;;10.56;96.88;100241.06;10131903;28;20541;-64
2020/12/22 07:33:05;;;;;;;7.63;6.35;;;;;;;10.59;97.19;100239.59;10130599;28;20051;-66
2020/12/22 07:38:10;;;;;;;6.85;5.28;;;;;;;10.60;96.71;100252.13;10132738;28;20050;-66
2020/12/22 07:43:13;;;;;;;6.93;5.18;;;;;;;10.62;96.97;100253.38;10127998;28;20043;-65
2020/12/22 07:48:09;;;;;;;5.90;4.57;;;;;;;10.64;97.07;100259.31;10132890;28;20050;-65
2020/12/22 07:53:05;;;;;;;6.07;3.75;;;;;;;10.67;97.21;100268.81;10135871;28;20046;-65
2020/12/22 07:58:02;;;;;;;6.95;4.38;;;;;;;10.65;97.19;100271.88;10137418;28;20538;-65
2020/12/22 08:03:14;;;;;;;5.55;4.05;;;;;;;10.69;97.47;100283.75;10140755;28;20670;-65
2020/12/22 08:08:13;;;;;;;6.03;3.97;;;;;;;10.71;97.50;100281.47;10140117;28;20065;-65
2020/12/22 08:13:16;;;;;;;5.75;3.58;;;;;;;10.72;97.35;100288.56;10141972;28;20523;-65
2020/12/22 08:18:13;;;;;;;4.45;2.80;;;;;;;10.73;97.39;100295.63;10135632;28;20054;-66
2020/12/22 08:23:17;;;;;;;5.05;2.65;;;;;;;10.73;97.71;100306.56;10136072;28;20051;-64
2020/12/22 08:28:21;;;;;;;3.78;2.47;;;;;;;10.77;97.80;100311.38;10140559;28;20692;-64
2020/12/22 08:33:19;;;;;;;4.50;3.22;;;;;;;10.81;97.35;100301.38;10136859;28;20063;-65
2020/12/22 08:38:24;;;;;;;6.47;3.22;;;;;;;10.81;97.49;100317.78;10131793;28;20514;-64
2020/12/22 08:43:22;;;;;;;4.28;3.00;;;;;;;10.82;97.38;100319.41;10129819;28;20434;-64
2020/12/22 08:48:18;;;;;;;4.60;2.95;;;;;;;10.85;97.66;100329.69;10126325;28;20117;-65
2020/12/22 08:53:16;;;;;;;4.03;2.20;;;;;;;10.86;97.32;100342.22;10137269;28;20402;-65
2020/12/22 08:58:12;;;;;;;3.80;2.28;;;;;;;10.87;97.32;100349.31;10143289;28;20101;-65
2020/12/22 09:03:09;;;;;;;3.50;1.70;;;;;;;10.89;96.97;100358.00;10132908;28;20038;-65
2020/12/22 09:08:07;;;;;;;8.70;2.85;;;;;;;10.88;96.64;100345.44;10130878;28;20125;-65
2020/12/22 09:13:13;;;;;;;3.67;1.95;;;;;;;10.91;97.14;100377.63;10136897;28;20070;-64
2020/12/22 09:18:15;;;;;;;2.67;1.40;;;;;;;10.92;96.98;100368.25;10134928;28;20057;-64
2020/12/22 09:23:12;;;;;;;4.38;1.40;;;;;;;10.88;97.02;100372.78;10145646;28;20426;-65
2020/12/22 09:28:08;;;;;;;2.33;1.10;;;;;;;10.89;97.22;100374.41;10144156;28;20173;-64
2020/12/22 09:33:04;;;;;;;2.30;1.20;;;;;;;10.90;97.37;100392.41;10129796;28;20105;-64
2020/12/22 09:38:01;;;;;;;3.53;1.00;;;;;;;10.91;97.21;100389.34;10128101;28;20727;-66
2020/12/22 09:42:57;;;;;;;2.17;1.10;;;;;;;10.93;97.60;100389.00;10120555;28;20046;-65
2020/12/22 09:47:53;;;;;;;3.25;1.30;;;;;;;10.91;97.54;100399.50;10134248;28;21330;-65
2020/12/22 09:52:49;;;;;;;4.28;1.65;;;;;;;10.96;97.39;100402.03;10133538;28;20046;-65
2020/12/22 09:57:45;;;;;;;4.60;2.17;;;;;;;10.95;96.76;100406.72;10130489;28;20076;-65
2020/12/22 10:02:41;;;;;;;5.50;2.42;;;;;;;10.97;97.12;100411.84;10122742;28;20042;-64
2020/12/22 10:07:38;;;;;;;7.80;3.08;;;;;;;11.00;96.94;100393.97;10140507;28;20149;-65
2020/12/22 10:12:34;;;;;;;4.90;2.83;;;;;;;11.02;97.10;100392.50;10134345;28;20042;-66
2020/12/22 10:17:31;;;;;;;4.93;2.72;;;;;;;11.03;97.03;100407.00;10133737;28;20058;-66
2020/12/22 10:22:30;;;;;;;4.38;2.17;;;;;;;11.03;97.01;100407.81;10130562;28;20132;-64
2020/12/22 10:27:26;;;;;;;6.25;2.08;;;;;;;11.10;96.58;100402.63;10132923;28;20054;-65
2020/12/22 10:32:22;;;;;;;3.28;1.77;;;;;;;11.12;96.45;100414.03;10107484;28;20047;-65
2020/12/22 10:37:18;;;;;;;5.97;2.85;;;;;;;11.10;96.52;100440.94;10135094;28;20050;-66
2020/12/22 10:42:14;;;;;;;6.75;2.30;;;;;;;11.09;96.59;100444.81;10134719;28;20109;-66
2020/12/22 10:47:11;;;;;;;2.20;0.50;;;;;;;10.85;95.55;100459.03;10123493;28;20057;-65
2020/12/22 10:52:07;;;;;;;1.27;0.20;;;;;;;10.79;95.27;100467.72;10137058;28;20422;-66
2020/12/22 10:57:12;;;;;;;1.83;0.57;;;;;;;10.66;95.01;100480.47;10140193;28;20880;-65
2020/12/22 11:02:08;;;;;;;4.05;1.23;;;;;;;10.38;94.62;100497.22;10128355;28;20053;-65
2020/12/22 11:07:12;;;;;;;2.42;0.82;;;;;;;10.31;94.61;100519.56;10138529;28;20054;-65
2020/12/22 11:12:08;;;;;;;;;;;;;;;10.01;93.95;100553.22;10129356;28;20514;-66
2020/12/22 11:17:04;;;;;;;9.05;2.90;;;;;;;9.72;92.90;100556.50;10129817;28;19930;-64
2020/12/22 11:22:00;;;;;;;6.25;2.88;;;;;;;9.60;92.62;100577.00;10133328;28;20583;-65
2020/12/22 11:26:56;;;;;;;6.97;3.45;;;;;;;9.37;91.77;100595.34;10136884;28;20047;-66
2020/12/22 11:31:52;;;;;;;10.43;4.43;;;;;;;9.32;91.56;100598.22;10103042;28;20588;-67
2020/12/22 11:36:52;;;;;;;12.48;4.05;;;;;;;9.17;91.39;100615.00;10127463;28;20046;-66
2020/12/22 11:41:48;;;;;;;15.20;5.30;;;;;;;9.12;91.68;100629.56;10135423;28;20138;-67
2020/12/22 11:46:45;;;;;;;16.02;5.78;;;;;;;9.22;91.98;100653.06;10126420;28;20144;-65
2020/12/22 11:51:42;;;;;;;10.27;5.03;;;;;;;9.15;91.29;100660.88;10126370;28;20117;-66
2020/12/22 11:56:38;;;;;;;10.93;4.50;;;;;;;9.17;91.10;100677.75;10120717;28;20073;-65
2020/12/22 12:01:35;;;;;;;12.60;4.28;;;;;;;9.06;90.85;100699.78;10129375;28;22426;-66
2020/12/22 12:06:31;;;;;;;12.50;4.65;;;;;;;9.16;90.88;100703.38;10132325;28;20060;-66
2020/12/22 12:11:27;;;;;;;8.52;2.95;;;;;;;9.02;90.08;100712.41;10135098;28;20458;-66
2020/12/22 12:16:23;;;;;;;8.55;1.80;;;;;;;8.97;88.64;100715.25;10121298;28;20050;-64
2020/12/22 12:21:19;;;;;;;8.05;2.03;;;;;;;9.02;88.73;100715.13;10123873;28;20046;-65
2020/12/22 12:26:15;;;;;;;7.95;1.77;;;;;;;8.94;88.85;100731.44;10132939;28;20545;-65
2020/12/22 12:31:13;;;;;;;8.68;1.90;;;;;;;8.94;88.62;100737.69;10120770;28;20057;-64
2020/12/22 12:36:13;;;;;;;13.35;1.63;;;;;;;8.92;88.34;100759.00;10130121;28;20515;-65
2020/12/22 12:41:12;;;;;;;6.28;1.13;;;;;;;8.93;87.53;100749.69;10131985;28;20051;-65
2020/12/22 12:46:09;;;;;;;9.00;1.42;;;;;;;8.92;87.53;100772.66;10119030;28;20074;-66
2020/12/22 12:51:06;;;;;;;6.38;1.10;;;;;;;8.95;86.67;100779.41;10127345;28;20059;-66
2020/12/22 12:56:02;;;;;;;4.72;1.02;;;;;;;8.89;87.69;100786.06;10117314;28;20525;-66
2020/12/22 13:00:58;;;;;;;9.82;1.30;;;;;;;8.81;88.82;100782.13;10129135;28;20042;-64
2020/12/22 13:05:54;;;;;;;10.70;1.20;;;;;;;8.66;89.65;100799.63;10133768;28;20058;-64
2020/12/22 13:10:50;;;;;;;6.53;1.50;;;;;;;8.62;89.61;100807.59;10139961;28;20057;-64
2020/12/22 13:15:46;;;;;;;5.82;1.40;;;;;;;8.69;89.14;100833.66;10132565;28;20548;-65
2020/12/22 13:20:42;;;;;;;8.05;1.30;;;;;;;8.69;88.94;100839.09;10135700;28;20054;-65
2020/12/22 13:25:38;;;;;;;9.05;1.33;;;;;;;8.75;87.73;100849.59;10147345;28;20474;-65
2020/12/22 13:30:34;;;;;;;5.65;1.00;;;;;;;8.81;87.56;100863.94;10141528;28;20061;-66
2020/12/22 13:35:30;;;;;;;9.27;1.08;;;;;;;8.89;87.71;100873.31;10138111;28;20050;-66
2020/12/22 13:40:46;;;;;;;8.35;1.30;;;;;;;8.78;88.24;100900.78;10129764;28;20050;-63
2020/12/22 13:45:42;;;;;;;10.48;1.65;;;;;;;8.81;88.56;100904.84;10130936;28;20532;-66
2020/12/22 13:50:38;;;;;;;8.55;1.35;;;;;;;8.79;89.62;100917.94;10131815;28;20134;-66
2020/12/22 13:55:34;;;;;;;10.13;1.17;;;;;;;8.51;88.67;100928.78;10132979;28;20054;-66
2020/12/22 14:00:30;;;;;;;10.68;1.73;;;;;;;8.48;87.97;100951.19;10124982;28;20056;-65
2020/12/22 14:05:26;;;;;;;8.05;1.05;;;;;;;8.44;87.50;100944.72;10135000;28;20739;-63
2020/12/22 14:10:22;;;;;;;22.27;3.50;;;;;;;8.42;86.63;100963.28;10130095;28;20513;-65
2020/12/22 14:15:18;;;;;;;12.55;1.23;;;;;;;8.41;86.87;100972.56;10135689;28;20112;-66
2020/12/22 14:20:14;;;;;;;15.77;1.88;;;;;;;8.44;87.35;100982.88;10134054;28;20113;-66
2020/12/22 14:25:10;;;;;;;8.50;2.58;;;;;;;8.24;86.72;101005.78;10133591;28;20061;-65
2020/12/22 14:30:07;;;;;;;6.93;0.88;;;;;;;8.16;86.15;101009.94;10133542;28;20133;-64
2020/12/22 14:35:03;;;;;;;11.10;1.35;;;;;;;8.17;85.91;101008.88;10140066;28;20042;-65
2020/12/22 14:39:59;;;;;;;7.13;0.95;;;;;;;8.11;85.21;101029.09;10132579;28;20065;-65
2020/12/22 14:44:55;;;;;;;9.68;1.88;;;;;;;8.17;84.50;101030.66;10115034;28;20061;-66
2020/12/22 14:49:51;;;;;;;11.98;1.13;;;;;;;8.18;82.58;101056.78;10127110;28;20050;-65
2020/12/22 14:54:49;;;;;;;8.05;1.67;;;;;;;8.09;80.63;101058.53;10132724;28;20680;-66
2020/12/22 15:00:04;;;;;;;10.57;1.95;;;;;;;8.14;80.82;101074.81;10122617;28;20515;-65
2020/12/22 15:05:01;;;;;;;13.32;2.05;;;;;;;8.19;79.94;101077.47;10128617;28;20054;-67
2020/12/22 15:09:57;;;;;;;15.55;2.95;;;;;;;8.18;80.08;101089.47;10121982;28;20050;-66
2020/12/22 15:14:53;;;;;;;10.85;1.20;;;;;;;8.14;79.96;101088.41;10132914;28;20043;-65
2020/12/22 15:19:49;;;;;;;18.00;1.52;;;;;;;8.19;80.23;101093.81;10134665;28;20049;-65
2020/12/22 15:24:46;;;;;;;14.93;2.20;;;;;;;8.10;80.66;101097.47;10137640;28;20047;-64
2020/12/22 15:29:41;;;;;;;23.20;4.30;;;;;;;8.04;80.99;101121.25;10130427;28;20058;-64
2020/12/22 15:34:38;;;;;;;7.57;1.85;;;;;;;7.93;81.63;101125.19;10135640;28;20054;-65
2020/12/22 15:39:35;;;;;;;16.00;1.95;;;;;;;7.86;82.58;101141.06;10133069;28;20567;-65
2020/12/22 15:44:31;;;;;;;13.00;1.50;;;;;;;7.74;82.97;101155.88;10132568;28;20051;-65
2020/12/22 15:49:27;;;;;;;10.75;1.63;;;;;;;7.70;83.19;101160.25;10123799;28;20106;-66
2020/12/22 15:54:24;;;;;;;20.52;2.70;;;;;;;7.66;83.12;101181.00;10125969;28;20439;-65
2020/12/22 15:59:20;;;;;;;14.38;2.00;;;;;;;7.70;82.89;101181.22;10121642;28;20066;-67
2020/12/22 16:04:16;;;;;;;20.90;2.53;;;;;;;7.72;83.18;101201.59;10120556;28;20125;-66
2020/12/22 16:09:13;;;;;;;18.05;2.42;;;;;;;7.72;83.03;101207.06;10115861;28;20054;-66
2020/12/22 16:14:09;;;;;;;18.73;2.83;;;;;;;7.68;82.55;101222.34;10115858;28;20038;-65
2020/12/22 16:19:05;;;;;;;25.25;4.43;;;;;;;7.53;82.16;101222.47;10124667;28;20618;-65
2020/12/22 16:24:02;;;;;;;20.60;2.40;;;;;;;7.53;81.56;101236.09;10132857;28;20054;-65
2020/12/22 16:28:58;;;;;;;17.27;2.40;;;;;;;7.54;80.43;101218.66;10125637;28;20145;-65
2020/12/22 16:33:54;;;;;;;16.45;2.63;;;;;;;7.57;80.39;101232.50;10131472;28;20078;-65
2020/12/22 16:38:50;;;;;;;23.63;4.03;;;;;;;7.61;79.81;101240.91;10136385;28;20786;-65
2020/12/22 16:43:48;;;;;;;16.85;2.90;;;;;;;7.57;79.64;101248.03;10140335;28;20046;-65
2020/12/22 16:48:44;;;;;;;19.83;3.13;;;;;;;7.65;79.16;101250.13;10129544;28;20101;-65
2020/12/22 16:53:40;;;;;;;19.98;3.25;;;;;;;7.55;78.61;101263.81;10128268;28;20137;-66
2020/12/22 16:58:37;;;;;;;12.85;2.90;;;;;;;7.60;79.28;101277.38;10132260;28;20161;-65
2020/12/22 17:03:33;;;;;;;25.40;4.30;;;;;;;7.59;79.38;101278.50;10144850;28;20157;-66
2020/12/22 17:08:32;;;;;;;17.23;2.10;;;;;;;7.63;79.51;101284.97;10133671;28;20069;-63
2020/12/22 17:13:28;;;;;;;20.15;3.13;;;;;;;7.67;79.49;101275.16;10135524;28;20062;-64
2020/12/22 17:18:24;;;;;;;18.65;3.85;;;;;;;7.63;79.57;101270.56;10139535;28;20101;-66
2020/12/22 17:23:20;;;;;;;23.88;3.38;;;;;;;7.49;79.96;101267.66;10123808;28;20069;-66
2020/12/22 17:28:16;;;;;;;14.98;2.75;;;;;;;7.63;79.98;101263.19;10142696;28;20050;-65
2020/12/22 17:33:12;;;;;;;23.13;3.88;;;;;;;7.60;80.15;101266.50;10131273;28;20143;-66
2020/12/22 17:38:22;;;;;;;30.00;3.55;;;;;;;7.62;79.85;101272.47;10142032;28;20194;-65
2020/12/22 17:43:18;;;;;;;18.30;2.33;;;;;;;7.64;80.53;101267.56;10132515;28;20568;-66
2020/12/22 17:48:14;;;;;;;21.42;5.28;;;;;;;7.63;80.57;101273.28;10132488;28;20046;-65
2020/12/22 17:53:10;;;;;;;21.13;3.38;;;;;;;7.44;78.33;101265.00;10139572;28;20071;-66
2020/12/22 17:58:06;;;;;;;23.75;4.22;;;;;;;7.42;78.74;101264.47;10146943;28;20038;-63
2020/12/22 18:03:02;;;;;;;17.98;2.80;;;;;;;7.47;78.34;101270.69;10140375;28;20055;-67
2020/12/22 18:07:58;;;;;;;16.55;2.65;;;;;;;7.48;78.61;101277.75;10138037;28;20542;-66
2020/12/22 18:12:54;;;;;;;20.67;3.85;;;;;;;7.37;78.70;101270.75;10126875;28;20058;-66
2020/12/22 18:17:50;;;;;;;20.42;2.70;;;;;;;7.35;77.87;101273.75;10136154;28;20093;-66
2020/12/22 18:22:46;;;;;;;26.63;3.10;;;;;;;7.36;77.64;101280.03;10134619;28;20050;-65
2020/12/22 18:27:42;;;;;;;12.48;2.33;;;;;;;7.37;76.90;101277.00;10128959;28;20093;-66
2020/12/22 18:32:42;;;;;;;23.60;3.10;;;;;;;7.41;77.28;101281.91;10140048;28;20058;-65
2020/12/22 18:37:39;;;;;;;23.85;3.60;;;;;;;7.49;76.96;101281.28;10129808;28;20061;-67
2020/12/22 18:42:35;;;;;;;14.93;4.32;;;;;;;7.28;76.72;101281.41;10129805;28;20078;-66
2020/12/22 18:47:33;;;;;;;29.35;3.17;;;;;;;7.32;76.28;101284.38;10125175;28;20065;-66
2020/12/22 18:52:29;;;;;;;31.15;4.20;;;;;;;7.44;74.98;101286.75;10112733;28;20062;-66
2020/12/22 18:57:25;;;;;;;17.02;3.05;;;;;;;7.49;75.48;101300.31;10137009;28;20136;-66
2020/12/22 19:02:33;;;;;;;15.43;2.35;;;;;;;7.27;76.54;101293.41;10126593;28;20086;-66
2020/12/22 19:07:29;;;;;;;17.85;4.00;;;;;;;7.37;77.00;101304.19;10125836;28;20049;-66
2020/12/22 19:12:25;;;;;;;12.43;2.28;;;;;;;7.43;76.89;101296.03;10133230;28;20061;-67
2020/12/22 19:17:21;;;;;;;23.13;4.80;;;;;;;7.35;76.71;101283.81;10137155;28;20052;-65
2020/12/22 19:22:21;;;;;;;25.10;4.38;;;;;;;7.35;76.99;101317.28;10143197;28;20054;-66
2020/12/22 19:27:17;;;;;;;15.10;2.83;;;;;;;7.29;77.27;101323.84;10132093;28;20054;-65
2020/12/22 19:32:13;;;;;;;21.02;4.18;;;;;;;7.30;77.62;101330.91;10129771;28;20546;-65
2020/12/22 19:37:10;;;;;;;18.13;3.03;;;;;;;7.28;78.00;101333.09;10133670;28;20050;-65
2020/12/22 19:42:05;;;;;;;18.73;2.90;;;;;;;7.29;78.94;101340.16;10137701;28;20097;-65
2020/12/22 19:47:01;;;;;;;18.42;4.68;;;;;;;7.29;78.79;101344.81;10125664;28;20065;-65
2020/12/22 19:51:58;;;;;;;17.27;2.85;;;;;;;7.20;79.60;101346.50;10126480;28;20058;-65
2020/12/22 19:56:54;;;;;;;24.23;3.90;;;;;;;7.21;78.24;101358.97;10149606;28;20102;-65
2020/12/22 20:01:51;;;;;;;19.40;3.17;;;;;;;7.16;78.94;101368.78;10133264;28;20097;-65
2020/12/22 20:06:47;;;;;;;17.75;3.45;;;;;;;7.15;78.47;101374.53;10120582;28;20101;-66
2020/12/22 20:11:43;;;;;;;13.38;2.90;;;;;;;7.08;77.99;101374.00;10140205;28;20534;-66
2020/12/22 20:16:38;;;;;;;15.60;2.95;;;;;;;6.97;78.42;101364.25;10136087;28;20058;-65
2020/12/22 20:21:34;;;;;;;26.35;3.85;;;;;;;6.96;78.27;101368.84;10131282;28;20046;-66
2020/12/22 20:26:30;;;;;;;16.67;2.60;;;;;;;7.02;77.76;101366.94;10134888;28;20055;-65
2020/12/22 20:31:26;;;;;;;20.50;3.10;;;;;;;7.00;78.10;101359.06;10142143;28;20133;-66
2020/12/22 20:36:27;;;;;;;15.77;3.15;;;;;;;6.97;77.93;101345.22;10136013;28;20062;-65
2020/12/22 20:41:23;;;;;;;17.67;2.58;;;;;;;6.96;78.50;101336.22;10129708;28;20086;-65
2020/12/22 20:46:19;;;;;;;18.48;3.17;;;;;;;7.01;78.41;101340.84;10132469;28;20519;-66
2020/12/22 20:51:15;;;;;;;20.23;3.80;;;;;;;6.92;78.32;101336.00;10127759;28;20133;-66
2020/12/22 20:56:11;;;;;;;18.70;2.53;;;;;;;6.89;78.03;101352.03;10138561;28;20071;-66
2020/12/22 21:01:08;;;;;;;17.70;3.10;;;;;;;6.87;78.64;101344.16;10128224;28;20054;-65
2020/12/22 21:06:04;;;;;;;21.83;3.00;;;;;;;6.90;78.34;101365.34;10132955;28;20094;-66
2020/12/22 21:11:04;;;;;;;15.93;2.80;;;;;;;6.75;78.81;101362.66;10132310;28;20130;-66
2020/12/22 21:16:00;;;;;;;22.95;5.18;;;;;;;6.89;78.12;101363.75;10130928;28;20050;-66
2020/12/22 21:20:56;;;;;;;13.80;3.50;;;;;;;6.85;78.26;101378.97;10132990;28;20415;-66
2020/12/22 21:25:52;;;;;;;16.17;3.40;;;;;;;6.78;78.41;101394.75;10143006;28;20050;-66
2020/12/22 21:30:48;;;;;;;18.13;2.88;;;;;;;6.70;78.68;101393.41;10151436;28;20060;-65
2020/12/22 21:35:44;;;;;;;21.52;4.43;;;;;;;6.69;78.63;101401.84;10148927;28;20100;-66
2020/12/22 21:40:40;;;;;;;13.23;2.92;;;;;;;6.71;78.84;101405.09;10139300;28;20437;-66
2020/12/22 21:45:36;;;;;;;22.80;3.72;;;;;;;6.71;78.50;101383.38;10131047;28;20069;-65
2020/12/22 21:50:32;;;;;;;20.90;3.00;;;;;;;6.63;78.96;101398.31;10136165;28;20145;-66
2020/12/22 21:55:28;;;;;;;20.77;2.60;;;;;;;6.71;78.54;101411.34;10137154;28;20477;-66
2020/12/22 22:00:25;;;;;;;16.42;2.60;;;;;;;6.66;78.94;101403.22;10137597;28;20126;-65
2020/12/22 22:05:21;;;;;;;17.92;2.42;;;;;;;6.75;78.94;101387.13;10126160;28;20145;-65
2020/12/22 22:10:17;;;;;;;17.60;2.70;;;;;;;6.72;78.94;101374.09;10127615;28;20129;-66
2020/12/22 22:15:13;;;;;;;10.68;2.38;;;;;;;6.69;77.88;101369.22;10122288;28;20050;-66
2020/12/22 22:20:10;;;;;;;17.48;3.38;;;;;;;6.76;77.65;101358.88;10129301;28;20145;-66
2020/12/22 22:25:06;;;;;;;21.50;3.28;;;;;;;6.81;77.42;101377.88;10137551;28;20054;-66
2020/12/22 22:30:03;;;;;;;10.35;2.42;;;;;;;6.78;77.11;101374.91;10136853;28;20515;-65
2020/12/22 22:34:59;;;;;;;13.93;2.45;;;;;;;6.61;77.81;101377.94;10140006;28;20038;-65
2020/12/22 22:39:55;;;;;;;16.55;2.50;;;;;;;6.66;77.23;101375.19;10122826;28;20057;-65
2020/12/22 22:44:52;;;;;;;15.65;2.85;;;;;;;6.58;76.99;101383.91;10122404;28;20050;-65